Time;durP1;ratioP1;P1;durP2;ratioP2;P2;SDS_P1;SDS_P2;PMS_P1;PMS_P2;Temp;Humidity;BMP_temperature;BMP_pressure;BME280_temperature;BME280_humidity;BME280_pressure;Samples;Min_cycle;Max_cycle;Signal;HPM_P1;HPM_P2
2021/10/24 00:01:06;;;;;;;12.23;8.57;;;9.50;99.90;;;;;;5015391;28;20637;-84
2021/10/24 00:03:32;;;;;;;10.32;7.60;;;9.40;99.90;;;;;;5014858;28;20165;-82
2021/10/24 00:05:58;;;;;;;17.13;8.38;;;9.40;99.90;;;;;;5015171;28;20170;-87
2021/10/24 00:08:24;;;;;;;19.20;7.60;;;9.50;99.90;;;;;;5014898;28;20565;-78
2021/10/24 00:10:50;;;;;;;12.15;7.72;;;9.40;99.90;;;;;;5015152;28;20172;-78
2021/10/24 00:13:15;;;;;;;10.48;7.50;;;9.30;99.90;;;;;;5015062;28;20251;-87
2021/10/24 00:15:41;;;;;;;14.15;8.45;;;9.30;99.90;;;;;;5014862;28;20259;-80
2021/10/24 00:18:07;;;;;;;15.98;8.43;;;9.30;99.90;;;;;;5014488;28;20215;-76
2021/10/24 00:20:34;;;;;;;12.70;8.15;;;9.20;99.90;;;;;;5014754;28;20176;-76
2021/10/24 00:22:59;;;;;;;8.77;6.95;;;9.20;99.90;;;;;;5030649;28;20536;-87
2021/10/24 00:25:26;;;;;;;9.65;8.30;;;9.20;99.90;;;;;;5015127;28;20169;-86
2021/10/24 00:27:51;;;;;;;13.48;8.35;;;9.20;99.90;;;;;;5014746;28;20637;-76
2021/10/24 00:30:17;;;;;;;14.77;8.02;;;9.40;99.90;;;;;;5014890;28;20160;-86
2021/10/24 00:32:43;;;;;;;10.55;8.18;;;9.40;99.90;;;;;;5014752;28;20169;-78
2021/10/24 00:35:09;;;;;;;14.82;7.55;;;9.50;99.90;;;;;;5014606;28;20533;-76
2021/10/24 00:37:35;;;;;;;13.68;8.35;;;9.50;99.90;;;;;;5014133;28;20195;-81
2021/10/24 00:40:00;;;;;;;9.82;8.48;;;9.50;99.90;;;;;;5023655;28;20196;-78
2021/10/24 00:42:26;;;;;;;16.05;8.50;;;9.40;99.90;;;;;;5036951;28;20163;-85
2021/10/24 00:44:51;;;;;;;8.13;7.32;;;9.30;99.90;;;;;;5037379;28;20192;-82
2021/10/24 00:47:17;;;;;;;9.27;7.32;;;9.30;99.90;;;;;;5036973;28;20169;-79
2021/10/24 00:49:43;;;;;;;10.05;7.63;;;9.30;99.90;;;;;;5037317;28;20188;-85
2021/10/24 00:52:09;;;;;;;9.48;7.95;;;9.20;99.90;;;;;;5019464;28;20180;-75
2021/10/24 00:54:37;;;;;;;7.97;7.18;;;9.20;99.90;;;;;;5015156;28;20161;-75
2021/10/24 00:57:03;;;;;;;10.27;7.07;;;9.00;99.90;;;;;;5014500;28;20164;-75
2021/10/24 00:59:29;;;;;;;8.35;7.55;;;8.90;99.90;;;;;;5015178;28;20295;-87
2021/10/24 01:01:55;;;;;;;16.90;7.40;;;9.00;99.90;;;;;;5013808;28;20164;-76
2021/10/24 01:04:22;;;;;;;11.00;6.90;;;8.90;99.90;;;;;;5013803;28;20161;-76
2021/10/24 01:06:50;;;;;;;9.52;7.25;;;8.90;99.90;;;;;;5013901;28;20168;-76
2021/10/24 01:09:20;;;;;;;8.13;6.72;;;9.00;99.90;;;;;;5013711;28;20187;-78
2021/10/24 01:11:48;;;;;;;12.07;7.57;;;9.10;99.90;;;;;;5013874;28;20612;-79
2021/10/24 01:14:14;;;;;;;12.88;7.55;;;9.20;99.90;;;;;;5013655;28;20171;-75
2021/10/24 01:16:41;;;;;;;8.10;6.60;;;8.80;99.90;;;;;;5014027;28;20180;-76
2021/10/24 01:19:09;;;;;;;9.05;6.90;;;8.70;99.90;;;;;;5013328;28;20207;-75
2021/10/24 01:21:35;;;;;;;8.48;6.97;;;8.70;99.90;;;;;;5014094;28;20160;-75
2021/10/24 01:24:01;;;;;;;10.65;7.63;;;8.80;99.90;;;;;;5014081;28;20196;-76
2021/10/24 01:26:28;;;;;;;7.38;6.30;;;8.80;99.90;;;;;;5013744;28;20672;-87
2021/10/24 01:28:55;;;;;;;9.55;6.85;;;8.80;99.90;;;;;;5013578;28;20220;-79
2021/10/24 01:31:22;;;;;;;6.80;6.07;;;8.80;99.90;;;;;;5012287;28;20196;-76
2021/10/24 01:33:47;;;;;;;7.85;6.18;;;8.70;99.90;;;;;;5013392;28;20652;-80
2021/10/24 01:36:13;;;;;;;10.48;6.00;;;8.60;99.90;;;;;;5012870;28;20219;-83
2021/10/24 01:38:49;;;;;;;8.02;6.10;;;8.60;99.90;;;;;;5013333;28;20291;-76
2021/10/24 01:41:16;;;;;;;8.70;7.40;;;8.60;99.90;;;;;;5013244;28;20164;-76
2021/10/24 01:43:42;;;;;;;9.40;6.47;;;8.70;99.90;;;;;;5013622;28;20203;-75
2021/10/24 01:46:08;;;;;;;10.77;6.47;;;8.80;99.90;;;;;;5013320;28;20175;-77
2021/10/24 01:48:33;;;;;;;10.93;5.45;;;8.70;99.90;;;;;;5011859;28;20196;-75
2021/10/24 01:50:59;;;;;;;8.07;5.85;;;8.70;99.90;;;;;;5013192;28;20667;-76
2021/10/24 01:53:30;;;;;;;8.45;6.30;;;8.70;99.90;;;;;;5013027;28;20172;-75
2021/10/24 01:55:56;;;;;;;7.00;5.40;;;8.80;99.90;;;;;;5013194;28;20165;-76
2021/10/24 01:58:22;;;;;;;7.80;5.65;;;8.90;99.90;;;;;;5013105;28;20242;-85
2021/10/24 02:00:49;;;;;;;16.08;6.28;;;9.00;99.90;;;;;;5012883;28;20668;-76
2021/10/24 02:03:16;;;;;;;8.38;5.72;;;9.10;99.90;;;;;;5012696;28;20160;-76
2021/10/24 02:05:42;;;;;;;7.13;6.20;;;9.20;99.90;;;;;;5013108;28;20182;-75
2021/10/24 02:08:08;;;;;;;6.85;5.75;;;9.20;99.90;;;;;;5012739;28;20189;-77
2021/10/24 02:10:36;;;;;;;9.65;5.63;;;9.30;99.90;;;;;;5013117;28;20207;-77
2021/10/24 02:13:02;;;;;;;6.32;5.72;;;9.50;99.90;;;;;;5012807;28;20171;-75
2021/10/24 02:15:28;;;;;;;7.43;5.18;;;9.50;99.90;;;;;;5013024;28;20165;-76
2021/10/24 02:17:54;;;;;;;9.75;4.78;;;9.60;99.90;;;;;;5012994;28;20203;-76
2021/10/24 02:20:20;;;;;;;6.00;4.78;;;9.60;99.90;;;;;;5012855;28;20214;-82
2021/10/24 02:22:46;;;;;;;5.25;4.75;;;9.60;99.90;;;;;;5012952;28;20307;-79
2021/10/24 02:25:12;;;;;;;4.82;4.35;;;9.60;99.90;;;;;;5013219;28;20258;-76
2021/10/24 02:27:38;;;;;;;6.05;4.60;;;9.70;99.90;;;;;;5012966;28;20172;-77
2021/10/24 02:30:09;;;;;;;5.18;4.25;;;9.80;99.90;;;;;;5012753;28;20584;-79
2021/10/24 02:32:34;;;;;;;6.25;4.18;;;9.80;99.90;;;;;;5012707;28;20641;-76
2021/10/24 02:35:00;;;;;;;8.20;4.47;;;9.80;99.90;;;;;;5012924;28;20192;-75
2021/10/24 02:37:26;;;;;;;6.20;4.60;;;9.80;99.90;;;;;;5013417;28;20720;-76
2021/10/24 02:39:52;;;;;;;4.53;4.13;;;9.80;99.90;;;;;;5013017;28;20218;-75
2021/10/24 02:42:18;;;;;;;5.13;4.32;;;9.90;99.90;;;;;;5012704;28;20161;-85
2021/10/24 02:44:44;;;;;;;4.43;3.83;;;9.90;99.90;;;;;;5012645;28;20256;-87
2021/10/24 02:47:10;;;;;;;4.22;3.85;;;9.80;99.90;;;;;;5013367;28;20168;-78
2021/10/24 02:49:35;;;;;;;5.10;4.43;;;9.60;99.90;;;;;;5012700;28;20254;-78
2021/10/24 02:52:01;;;;;;;4.95;4.13;;;9.60;99.90;;;;;;5012830;28;20164;-77
2021/10/24 02:54:27;;;;;;;8.77;3.70;;;9.50;99.90;;;;;;5012855;28;20180;-83
2021/10/24 02:56:53;;;;;;;10.68;4.32;;;9.50;99.90;;;;;;5012862;28;20505;-77
2021/10/24 02:59:19;;;;;;;4.53;4.10;;;9.50;99.90;;;;;;5012827;28;20219;-79
2021/10/24 03:01:46;;;;;;;5.43;3.75;;;9.70;99.90;;;;;;5016073;28;20192;-77
2021/10/24 03:04:12;;;;;;;9.95;4.50;;;9.70;99.90;;;;;;5016479;28;20180;-77
2021/10/24 03:06:39;;;;;;;8.55;4.50;;;9.80;99.90;;;;;;5016771;28;20172;-76
2021/10/24 03:09:06;;;;;;;6.00;4.03;;;9.80;99.90;;;;;;5016062;28;20541;-81
2021/10/24 03:11:32;;;;;;;10.38;4.00;;;9.70;99.90;;;;;;5016556;28;20168;-86
2021/10/24 03:13:58;;;;;;;6.57;3.47;;;9.70;99.90;;;;;;5016302;28;20567;-81
2021/10/24 03:16:24;;;;;;;5.57;4.18;;;9.80;99.90;;;;;;5016453;28;20164;-79
2021/10/24 03:18:49;;;;;;;5.78;2.97;;;9.70;99.90;;;;;;5015919;28;20644;-78
2021/10/24 03:21:15;;;;;;;4.55;3.40;;;9.60;99.90;;;;;;5016308;28;20164;-84
2021/10/24 03:23:41;;;;;;;4.00;3.22;;;9.70;99.90;;;;;;5016417;28;20640;-88
2021/10/24 03:26:06;;;;;;;4.90;4.40;;;9.60;99.90;;;;;;5016221;28;20215;-76
2021/10/24 03:28:34;;;;;;;4.55;3.70;;;9.60;99.90;;;;;;5016065;28;20203;-77
2021/10/24 03:31:00;;;;;;;4.90;4.03;;;9.60;99.90;;;;;;5016140;28;20644;-87
2021/10/24 03:33:26;;;;;;;7.55;3.90;;;9.50;99.90;;;;;;5015648;28;20251;-87
2021/10/24 03:35:52;;;;;;;14.07;3.78;;;9.50;99.90;;;;;;5016075;28;20248;-77
2021/10/24 03:38:18;;;;;;;3.40;3.10;;;9.60;99.90;;;;;;5016064;28;20688;-88
2021/10/24 03:40:44;;;;;;;7.50;4.05;;;9.60;99.90;;;;;;5015796;28;20191;-87
2021/10/24 03:43:10;;;;;;;5.15;3.63;;;9.60;99.90;;;;;;5015937;28;20164;-76
2021/10/24 03:45:36;;;;;;;10.90;4.03;;;9.70;99.90;;;;;;5016207;28;20223;-77
2021/10/24 03:48:01;;;;;;;7.03;3.70;;;9.60;99.90;;;;;;5015564;28;20180;-88
2021/10/24 03:50:27;;;;;;;3.30;2.97;;;9.60;99.90;;;;;;5014691;28;20176;-86
2021/10/24 03:52:52;;;;;;;7.18;3.58;;;9.60;99.90;;;;;;5015715;28;20167;-78
2021/10/24 03:55:18;;;;;;;3.03;2.75;;;9.50;99.90;;;;;;5015620;28;20204;-77
2021/10/24 03:57:44;;;;;;;8.23;3.53;;;9.40;99.90;;;;;;5015420;28;20676;-77
2021/10/24 04:00:11;;;;;;;8.38;3.75;;;9.30;99.90;;;;;;5015291;28;20223;-84
2021/10/24 04:02:58;;;;;;;5.53;2.95;;;9.30;99.90;;;;;;5015316;28;20220;-87
2021/10/24 04:05:26;;;;;;;5.57;3.17;;;9.40;99.90;;;;;;5014918;28;20176;-77
2021/10/24 04:07:53;;;;;;;3.38;3.08;;;9.40;99.90;;;;;;5015596;28;20173;-89
2021/10/24 04:10:20;;;;;;;11.15;3.63;;;9.30;99.90;;;;;;5015232;28;20298;-77
2021/10/24 04:12:46;;;;;;;13.00;3.33;;;9.40;99.90;;;;;;5014298;28;20165;-87
2021/10/24 04:15:13;;;;;;;3.58;3.22;;;9.30;99.90;;;;;;5015563;28;20529;-86
2021/10/24 04:17:39;;;;;;;7.97;3.20;;;9.30;99.90;;;;;;5014891;28;20512;-87
2021/10/24 04:20:10;;;;;;;5.25;2.85;;;9.30;99.90;;;;;;5014789;28;20215;-77
2021/10/24 04:22:37;;;;;;;4.75;2.88;;;9.30;99.90;;;;;;5015313;28;20171;-84
2021/10/24 04:25:04;;;;;;;3.78;2.40;;;9.30;99.90;;;;;;5030693;28;20226;-79
2021/10/24 04:27:30;;;;;;;4.82;2.80;;;9.30;99.90;;;;;;5029945;28;20181;-77
2021/10/24 04:29:55;;;;;;;6.43;2.90;;;9.30;99.90;;;;;;5014515;28;20655;-87
2021/10/24 04:32:21;;;;;;;4.60;2.85;;;9.40;99.90;;;;;;5015399;28;20168;-76
2021/10/24 04:34:47;;;;;;;7.18;3.20;;;9.30;99.90;;;;;;5015016;28;20164;-86
2021/10/24 04:37:13;;;;;;;4.18;2.30;;;9.20;99.90;;;;;;5014794;28;20180;-82
2021/10/24 04:39:38;;;;;;;4.55;2.63;;;9.20;99.90;;;;;;5014384;28;20614;-76
2021/10/24 04:42:05;;;;;;;7.70;3.00;;;9.30;99.90;;;;;;5014725;28;20177;-80
2021/10/24 04:44:30;;;;;;;3.60;3.10;;;9.20;99.90;;;;;;5015049;28;20195;-88
2021/10/24 04:46:57;;;;;;;4.50;3.10;;;9.20;99.90;;;;;;5014794;28;20628;-86
2021/10/24 04:49:22;;;;;;;5.95;2.85;;;9.20;99.90;;;;;;5015157;28;20188;-86
2021/10/24 04:51:48;;;;;;;5.75;2.63;;;9.20;99.90;;;;;;5014486;28;20200;-75
2021/10/24 04:54:14;;;;;;;8.80;3.58;;;9.10;99.90;;;;;;5013914;28;20208;-76
2021/10/24 04:56:39;;;;;;;4.70;3.53;;;9.10;99.90;;;;;;5013912;28;20176;-88
2021/10/24 04:59:05;;;;;;;3.15;2.80;;;9.10;99.90;;;;;;5014377;28;20212;-88
2021/10/24 05:01:31;;;;;;;3.22;2.92;;;9.30;99.90;;;;;;5014449;28;20175;-81
2021/10/24 05:03:56;;;;;;;3.97;2.65;;;9.10;99.90;;;;;;5014045;28;20179;-76
2021/10/24 05:06:22;;;;;;;2.42;2.22;;;9.00;99.90;;;;;;5013987;28;20247;-87
2021/10/24 05:08:48;;;;;;;4.47;2.50;;;8.90;99.90;;;;;;5013676;28;20526;-77
2021/10/24 05:11:13;;;;;;;5.50;2.95;;;8.90;99.90;;;;;;5014447;28;20169;-76
2021/10/24 05:13:39;;;;;;;6.45;2.92;;;8.90;99.90;;;;;;5013236;28;20191;-87
2021/10/24 05:16:05;;;;;;;3.92;2.85;;;8.90;99.90;;;;;;5014449;28;20164;-76
2021/10/24 05:18:31;;;;;;;5.68;2.53;;;8.90;99.90;;;;;;5013750;28;20219;-88
2021/10/24 05:20:56;;;;;;;6.18;2.92;;;9.10;99.90;;;;;;5014077;28;20535;-82
2021/10/24 05:23:22;;;;;;;9.50;3.25;;;9.10;99.90;;;;;;5013708;28;20247;-76
2021/10/24 05:25:48;;;;;;;5.15;2.60;;;9.10;99.90;;;;;;5014012;28;20220;-75
2021/10/24 05:28:13;;;;;;;2.92;2.47;;;9.20;99.90;;;;;;5013621;28;20802;-88
2021/10/24 05:30:39;;;;;;;3.92;2.65;;;9.20;99.90;;;;;;5013855;28;20226;-86
2021/10/24 05:33:04;;;;;;;4.13;2.78;;;9.30;99.90;;;;;;5013397;28;20200;-77
2021/10/24 05:35:31;;;;;;;3.28;2.83;;;9.30;99.90;;;;;;5013360;28;20176;-77
2021/10/24 05:37:57;;;;;;;6.35;2.65;;;9.40;99.90;;;;;;5013713;28;20204;-77
2021/10/24 05:40:23;;;;;;;4.10;2.42;;;9.40;99.90;;;;;;5014089;28;20704;-89
2021/10/24 05:42:48;;;;;;;3.33;2.55;;;9.40;99.90;;;;;;5013865;28;20247;-77
2021/10/24 05:45:14;;;;;;;2.90;2.63;;;9.30;99.90;;;;;;5012248;28;20184;-77
2021/10/24 05:47:40;;;;;;;5.70;3.15;;;9.40;99.90;;;;;;5013855;28;20180;-76
2021/10/24 05:50:05;;;;;;;12.65;3.45;;;9.40;99.90;;;;;;5013629;28;20180;-85
2021/10/24 05:52:31;;;;;;;6.05;2.80;;;9.40;99.90;;;;;;5013796;28;20215;-82
2021/10/24 05:54:57;;;;;;;3.58;2.78;;;9.40;99.90;;;;;;5013798;28;20172;-78
2021/10/24 05:57:22;;;;;;;3.60;2.97;;;9.40;99.90;;;;;;5013861;28;20156;-77
2021/10/24 05:59:48;;;;;;;4.18;3.47;;;9.50;99.90;;;;;;5013583;28;20201;-76
2021/10/24 06:02:13;;;;;;;3.13;2.67;;;9.50;99.90;;;;;;5013365;28;20179;-88
2021/10/24 06:04:39;;;;;;;3.85;2.65;;;9.40;99.90;;;;;;5028593;28;20161;-76
2021/10/24 06:07:05;;;;;;;10.68;2.92;;;9.30;99.90;;;;;;5013352;28;20172;-77
2021/10/24 06:09:42;;;;;;;4.32;3.05;;;9.30;99.90;;;;;;5013541;28;20192;-77
2021/10/24 06:12:38;;;;;;;6.38;3.17;;;9.40;99.90;;;;;;5013457;28;20590;-89
2021/10/24 06:15:07;;;;;;;10.27;3.75;;;9.50;99.90;;;;;;5012838;28;20219;-78
2021/10/24 06:17:34;;;;;;;6.88;2.85;;;9.40;99.90;;;;;;5035276;28;20165;-82
2021/10/24 06:20:00;;;;;;;6.32;2.85;;;9.40;99.90;;;;;;5034934;28;20200;-84
2021/10/24 06:22:26;;;;;;;8.45;3.22;;;9.30;99.90;;;;;;5035862;28;20203;-82
2021/10/24 06:24:53;;;;;;;2.47;2.28;;;9.30;99.90;;;;;;5036504;28;20187;-81
2021/10/24 06:27:19;;;;;;;6.50;3.17;;;9.40;99.90;;;;;;5026692;28;20187;-78
2021/10/24 06:29:45;;;;;;;3.95;2.92;;;9.30;99.90;;;;;;5014255;28;20188;-78
2021/10/24 06:32:10;;;;;;;5.63;2.90;;;9.40;99.90;;;;;;5015814;28;20172;-79
2021/10/24 06:34:37;;;;;;;5.15;2.70;;;9.40;99.90;;;;;;5015305;28;20196;-79
2021/10/24 06:37:03;;;;;;;3.90;2.70;;;9.30;99.90;;;;;;5016659;28;20282;-80
2021/10/24 06:39:28;;;;;;;3.83;2.60;;;9.30;99.90;;;;;;5014839;28;20633;-81
2021/10/24 06:41:54;;;;;;;5.07;2.90;;;9.30;99.90;;;;;;5016479;28;20200;-81
2021/10/24 06:44:20;;;;;;;8.90;3.17;;;9.30;99.90;;;;;;5016641;28;20251;-79
2021/10/24 06:46:46;;;;;;;8.07;3.05;;;9.40;99.90;;;;;;5031506;28;20263;-84
2021/10/24 06:49:11;;;;;;;7.60;3.40;;;9.50;99.90;;;;;;5016224;28;20556;-84
2021/10/24 06:51:37;;;;;;;7.43;2.78;;;9.60;99.90;;;;;;5016083;28;20168;-79
2021/10/24 06:54:03;;;;;;;3.90;2.53;;;9.50;99.90;;;;;;5016104;28;20260;-84
2021/10/24 06:56:28;;;;;;;7.82;3.28;;;9.50;99.90;;;;;;5015824;28;20161;-78
2021/10/24 06:58:54;;;;;;;8.10;3.63;;;9.40;99.90;;;;;;5015599;28;20204;-82
2021/10/24 07:01:19;;;;;;;9.73;3.28;;;9.40;99.90;;;;;;5015720;28;20173;-77
2021/10/24 07:03:45;;;;;;;2.90;2.60;;;9.30;99.90;;;;;;5015728;28;20167;-78
2021/10/24 07:06:11;;;;;;;2.83;2.50;;;9.30;99.90;;;;;;5015998;28;20187;-84
2021/10/24 07:08:37;;;;;;;9.35;3.10;;;9.30;99.90;;;;;;5015598;28;20199;-83
2021/10/24 07:11:03;;;;;;;6.05;2.63;;;9.20;99.90;;;;;;5015646;28;20610;-79
2021/10/24 07:13:28;;;;;;;7.20;3.00;;;9.30;99.90;;;;;;5015826;28;20176;-77
2021/10/24 07:15:55;;;;;;;9.40;3.10;;;9.40;99.90;;;;;;5015758;28;20649;-86
2021/10/24 07:18:20;;;;;;;5.15;3.30;;;9.50;99.90;;;;;;5015485;28;20208;-79
2021/10/24 07:20:46;;;;;;;9.43;3.00;;;9.50;99.90;;;;;;5015602;28;20387;-79
2021/10/24 07:23:12;;;;;;;4.07;3.08;;;9.50;99.90;;;;;;5015495;28;20176;-81
2021/10/24 07:25:37;;;;;;;6.28;2.65;;;9.40;99.90;;;;;;5015130;28;20165;-84
2021/10/24 07:28:03;;;;;;;6.55;2.80;;;9.40;99.90;;;;;;5015372;28;20189;-83
2021/10/24 07:30:29;;;;;;;4.85;2.80;;;9.20;99.90;;;;;;5015252;28;20706;-78
2021/10/24 07:32:55;;;;;;;4.97;2.55;;;9.30;99.90;;;;;;5014808;28;20188;-82
2021/10/24 07:35:21;;;;;;;11.15;2.95;;;9.40;99.90;;;;;;5014984;28;20168;-79
2021/10/24 07:37:47;;;;;;;15.05;3.75;;;9.30;99.90;;;;;;5015037;28;20216;-78
2021/10/24 07:40:13;;;;;;;5.68;3.17;;;9.50;99.90;;;;;;5015230;28;20293;-83
2021/10/24 07:42:39;;;;;;;9.27;3.40;;;9.50;99.90;;;;;;5014969;28;20251;-79
2021/10/24 07:45:06;;;;;;;30.98;4.93;;;9.50;99.90;;;;;;5009981;28;20188;-78
2021/10/24 07:47:32;;;;;;;11.63;3.30;;;9.70;99.90;;;;;;5012711;28;20528;-78
2021/10/24 07:49:59;;;;;;;13.40;3.42;;;9.60;99.90;;;;;;5014458;28;20172;-78
2021/10/24 07:52:25;;;;;;;4.97;3.55;;;9.60;99.90;;;;;;5012413;28;20204;-82
2021/10/24 07:54:50;;;;;;;13.57;3.50;;;9.60;99.90;;;;;;5014033;28;20671;-81
2021/10/24 07:57:18;;;;;;;4.93;3.58;;;9.70;99.90;;;;;;5009891;28;20238;-83
2021/10/24 07:59:43;;;;;;;6.25;3.13;;;9.90;99.90;;;;;;5012275;28;20212;-83
2021/10/24 08:02:17;;;;;;;3.38;3.05;;;9.80;99.90;;;;;;5013447;28;20173;-82
2021/10/24 08:04:42;;;;;;;7.20;3.70;;;9.80;99.90;;;;;;5013370;28;20843;-82
2021/10/24 08:07:08;;;;;;;8.02;2.92;;;9.70;99.90;;;;;;5012566;28;20211;-79
2021/10/24 08:09:34;;;;;;;6.63;2.90;;;9.70;99.90;;;;;;5013428;28;20192;-83
2021/10/24 08:12:00;;;;;;;4.13;2.85;;;9.50;99.90;;;;;;5013398;28;20628;-79
2021/10/24 08:14:26;;;;;;;7.47;3.53;;;9.60;99.90;;;;;;5013098;28;20169;-78
2021/10/24 08:16:51;;;;;;;11.25;3.47;;;9.80;99.90;;;;;;5011480;28;20737;-79
2021/10/24 08:19:17;;;;;;;4.80;3.10;;;9.90;99.90;;;;;;5011902;28;20319;-82
2021/10/24 08:21:43;;;;;;;7.93;3.70;;;9.80;99.90;;;;;;5010755;28;20255;-81
2021/10/24 08:24:10;;;;;;;4.97;2.90;;;9.80;99.90;;;;;;5011693;28;20283;-82
2021/10/24 08:26:35;;;;;;;4.50;3.15;;;10.10;99.90;;;;;;5011784;28;20652;-78
2021/10/24 08:29:02;;;;;;;3.45;2.83;;;10.20;99.90;;;;;;5012317;28;20188;-78
2021/10/24 08:31:29;;;;;;;8.98;3.55;;;10.10;99.90;;;;;;5013278;28;20180;-82
2021/10/24 08:33:59;;;;;;;6.53;3.33;;;10.30;99.90;;;;;;5011283;28;20176;-81
2021/10/24 08:36:29;;;;;;;6.18;3.00;;;10.40;99.90;;;;;;5012234;28;20184;-80
2021/10/24 08:38:57;;;;;;;7.22;3.42;;;10.60;99.90;;;;;;5011877;28;20208;-81
2021/10/24 08:41:28;;;;;;;5.47;2.97;;;10.90;99.90;;;;;;5013076;28;20165;-83
2021/10/24 08:44:02;;;;;;;4.45;3.95;;;10.90;99.90;;;;;;5012602;28;20510;-82
2021/10/24 08:46:27;;;;;;;5.00;3.08;;;10.70;99.90;;;;;;5012224;28;20177;-78
2021/10/24 08:48:55;;;;;;;12.48;3.58;;;10.60;99.90;;;;;;5012184;28;20227;-82
2021/10/24 08:51:21;;;;;;;3.80;2.85;;;10.70;99.90;;;;;;5013485;28;20164;-80
2021/10/24 08:53:47;;;;;;;8.70;3.78;;;10.70;99.90;;;;;;5012493;28;20775;-78
2021/10/24 08:56:18;;;;;;;3.75;3.42;;;10.80;99.90;;;;;;5011817;28;20651;-78
2021/10/24 08:58:46;;;;;;;5.10;3.28;;;10.90;99.90;;;;;;5011279;28;20212;-79
2021/10/24 09:01:16;;;;;;;7.15;3.28;;;10.70;99.90;;;;;;5012104;28;20675;-78
2021/10/24 09:04:05;;;;;;;10.30;3.05;;;10.90;99.90;;;;;;5011833;28;20644;-80
2021/10/24 09:06:57;;;;;;;6.38;3.90;;;11.10;99.90;;;;;;5012176;28;20161;-77
2021/10/24 09:09:31;;;;;;;6.82;3.80;;;11.30;99.90;;;;;;5011219;28;20219;-79
2021/10/24 09:12:07;;;;;;;4.80;3.15;;;11.00;99.90;;;;;;5011617;28;20644;-78
2021/10/24 09:14:38;;;;;;;5.72;3.45;;;11.00;99.90;;;;;;4991896;28;20165;-79
2021/10/24 09:17:16;;;;;;;7.53;3.85;;;11.10;99.90;;;;;;5007221;28;20625;-79
2021/10/24 09:19:46;;;;;;;5.00;3.38;;;11.30;99.90;;;;;;5011404;28;20298;-81
2021/10/24 09:22:16;;;;;;;4.65;3.17;;;11.30;99.90;;;;;;5011766;28;20161;-81
2021/10/24 09:25:07;;;;;;;4.63;3.25;;;11.20;99.90;;;;;;5011850;28;20191;-78
2021/10/24 09:27:44;;;;;;;6.32;3.47;;;11.30;99.90;;;;;;5011426;28;20169;-77
2021/10/24 09:30:16;;;;;;;11.35;4.13;;;11.60;99.90;;;;;;5011334;28;20683;-80
2021/10/24 09:32:51;;;;;;;7.05;3.53;;;11.70;99.90;;;;;;5011751;28;20169;-79
2021/10/24 09:35:20;;;;;;;8.10;3.63;;;11.90;99.90;;;;;;5011314;28;20195;-80
2021/10/24 09:37:47;;;;;;;4.95;3.40;;;11.80;99.90;;;;;;5010231;28;20272;-82
2021/10/24 09:40:18;;;;;;;7.75;3.17;;;12.10;99.90;;;;;;5011236;28;20601;-79
2021/10/24 09:42:44;;;;;;;7.22;3.13;;;11.70;99.90;;;;;;5011683;28;20168;-81
2021/10/24 09:45:14;;;;;;;12.27;3.92;;;11.70;99.90;;;;;;5011124;28;20271;-79
2021/10/24 09:47:45;;;;;;;5.20;3.25;;;11.80;99.90;;;;;;5008663;28;20176;-79
2021/10/24 09:50:32;;;;;;;4.00;3.15;;;11.80;99.90;;;;;;5009852;28;20223;-79
2021/10/24 09:53:16;;;;;;;6.97;3.90;;;12.00;99.90;;;;;;5011750;28;20641;-77
2021/10/24 09:55:43;;;;;;;5.28;3.35;;;12.10;99.90;;;;;;5010932;28;20192;-82
2021/10/24 09:58:13;;;;;;;3.78;3.17;;;12.20;99.90;;;;;;5010719;28;20188;-78
2021/10/24 10:00:40;;;;;;;6.47;3.63;;;12.30;99.90;;;;;;5009400;28;20172;-83
2021/10/24 10:03:07;;;;;;;10.20;3.85;;;12.50;99.90;;;;;;5009549;28;20169;-79
2021/10/24 10:05:36;;;;;;;3.83;3.38;;;12.40;99.90;;;;;;5011018;28;20168;-78
2021/10/24 10:08:03;;;;;;;6.43;3.65;;;12.40;99.90;;;;;;5011334;28;20177;-81
2021/10/24 10:10:30;;;;;;;4.60;3.10;;;12.40;99.90;;;;;;5012845;28;20191;-80
2021/10/24 10:13:01;;;;;;;3.92;3.05;;;12.50;99.90;;;;;;5015178;28;20354;-79
2021/10/24 10:15:36;;;;;;;5.97;3.67;;;12.70;99.90;;;;;;5014924;28;20180;-83
2021/10/24 10:18:04;;;;;;;7.80;3.92;;;12.80;99.90;;;;;;5015228;28;20242;-78
2021/10/24 10:20:32;;;;;;;6.75;4.65;;;12.70;99.90;;;;;;5016023;28;20184;-83
2021/10/24 10:23:09;;;;;;;5.60;3.72;;;12.90;99.90;;;;;;5014599;28;20201;-77
2021/10/24 10:25:37;;;;;;;7.80;4.22;;;12.80;99.90;;;;;;5014802;28;20168;-78
2021/10/24 10:28:04;;;;;;;7.50;3.35;;;12.70;99.90;;;;;;5014519;28;20188;-77
2021/10/24 10:30:31;;;;;;;5.30;4.07;;;12.70;99.90;;;;;;5015079;28;20180;-79
2021/10/24 10:32:57;;;;;;;13.60;4.00;;;12.70;99.90;;;;;;5014847;28;20182;-80
2021/10/24 10:35:25;;;;;;;3.60;3.28;;;12.80;99.90;;;;;;5015161;28;20160;-80
2021/10/24 10:37:57;;;;;;;5.28;3.45;;;12.80;99.90;;;;;;5014858;28;20680;-78
2021/10/24 10:40:33;;;;;;;4.75;3.15;;;12.80;99.90;;;;;;5014568;28;20295;-81
2021/10/24 10:43:03;;;;;;;10.55;3.53;;;12.80;99.90;;;;;;5015020;28;20176;-79
2021/10/24 10:45:35;;;;;;;5.20;3.88;;;13.10;99.90;;;;;;5013135;28;20191;-82
2021/10/24 10:48:20;;;;;;;11.77;3.72;;;13.10;99.90;;;;;;5014034;28;20556;-83
2021/10/24 10:53:31;;;;;;;8.90;3.63;;;13.20;99.90;;;;;;4992371;28;20235;-76
2021/10/24 10:56:00;;;;;;;9.63;3.67;;;13.30;99.90;;;;;;4991447;28;20188;-78
2021/10/24 10:58:28;;;;;;;6.80;3.33;;;13.30;99.90;;;;;;4995922;28;20259;-78
2021/10/24 11:00:57;;;;;;;6.88;3.28;;;13.40;99.90;;;;;;4991979;28;20260;-77
2021/10/24 11:03:45;;;;;;;9.73;3.20;;;13.30;99.90;;;;;;4995038;28;20161;-76
2021/10/24 11:06:33;;;;;;;7.40;2.85;;;13.40;99.90;;;;;;4993959;28;20157;-76
2021/10/24 11:09:02;;;;;;;5.28;3.22;;;13.40;99.90;;;;;;4989874;28;20791;-77
2021/10/24 11:11:40;;;;;;;7.82;3.15;;;13.40;99.90;;;;;;4993615;28;20259;-78
2021/10/24 11:14:12;;;;;;;3.58;2.85;;;13.50;99.90;;;;;;4995649;28;20176;-77
2021/10/24 11:16:44;;;;;;;3.90;2.42;;;13.50;99.90;;;;;;4990255;28;20166;-77
2021/10/24 11:19:37;;;;;;;5.82;3.30;;;13.70;99.90;;;;;;4993578;28;20213;-76
2021/10/24 11:22:12;;;;;;;4.97;3.00;;;13.40;99.90;;;;;;4992150;28;20181;-77
2021/10/24 11:24:52;;;;;;;6.32;3.17;;;13.40;99.90;;;;;;4986614;28;20320;-77
2021/10/24 11:27:26;;;;;;;7.15;2.97;;;13.50;99.90;;;;;;4990939;28;20173;-76
2021/10/24 11:29:54;;;;;;;7.22;3.10;;;13.60;99.90;;;;;;4989862;28;20192;-76
2021/10/24 11:32:30;;;;;;;6.35;3.10;;;13.60;99.90;;;;;;4993412;28;20173;-77
2021/10/24 11:35:00;;;;;;;4.10;3.40;;;13.50;99.90;;;;;;4995507;28;20169;-76
2021/10/24 11:37:47;;;;;;;4.38;2.95;;;13.60;99.90;;;;;;4995746;28;20185;-76
2021/10/24 11:40:17;;;;;;;4.90;3.42;;;13.70;99.90;;;;;;4995602;28;20677;-78
2021/10/24 11:43:12;;;;;;;4.43;3.30;;;13.80;99.90;;;;;;4995673;28;20265;-77
2021/10/24 11:45:40;;;;;;;5.22;2.55;;;13.80;99.90;;;;;;4995894;28;20532;-78
2021/10/24 11:48:11;;;;;;;3.05;2.20;;;13.70;99.90;;;;;;5001966;28;20181;-77
2021/10/24 11:51:00;;;;;;;2.45;2.20;;;13.70;99.90;;;;;;5006881;28;20173;-77
2021/10/24 11:53:32;;;;;;;2.78;1.75;;;13.70;99.90;;;;;;5005725;28;20193;-77
2021/10/24 11:56:02;;;;;;;2.53;2.22;;;13.70;99.90;;;;;;5018452;28;20229;-79
2021/10/24 12:01:32;;;;;;;4.72;2.50;;;13.70;99.90;;;;;;5012192;28;20548;-77
2021/10/24 12:04:03;;;;;;;6.65;2.03;;;13.60;99.90;;;;;;4996785;28;20176;-78
2021/10/24 12:06:48;;;;;;;2.90;2.25;;;13.70;99.90;;;;;;4996824;28;20170;-81
2021/10/24 12:09:25;;;;;;;5.20;2.63;;;13.60;99.90;;;;;;4994601;28;20295;-80
2021/10/24 12:11:51;;;;;;;6.82;2.95;;;13.70;99.90;;;;;;4995981;28;20227;-77
2021/10/24 12:14:17;;;;;;;4.18;2.67;;;13.80;99.90;;;;;;4996619;28;20330;-77
2021/10/24 12:16:47;;;;;;;3.08;2.70;;;13.80;99.90;;;;;;4996082;28;20217;-77
2021/10/24 12:19:15;;;;;;;3.72;2.80;;;13.80;99.90;;;;;;4994524;28;20257;-77
2021/10/24 12:21:56;;;;;;;11.10;3.35;;;13.80;99.90;;;;;;4995029;28;20169;-77
2021/10/24 12:24:24;;;;;;;14.25;3.83;;;13.80;99.90;;;;;;4994200;28;20165;-77
2021/10/24 12:27:03;;;;;;;2.92;2.60;;;13.80;99.90;;;;;;4994535;28;20173;-77
2021/10/24 12:29:29;;;;;;;3.30;3.00;;;13.80;99.90;;;;;;4994664;28;20231;-77
2021/10/24 12:32:05;;;;;;;5.55;2.97;;;13.80;99.90;;;;;;4994640;28;20165;-77
2021/10/24 12:34:32;;;;;;;5.38;2.53;;;13.80;99.90;;;;;;4994133;28;20169;-77
2021/10/24 12:36:57;;;;;;;3.25;2.47;;;13.80;99.90;;;;;;4994836;28;20173;-77
2021/10/24 12:39:25;;;;;;;3.03;2.70;;;13.80;99.90;;;;;;4994630;28;20720;-77
2021/10/24 12:41:51;;;;;;;3.78;2.83;;;13.80;99.90;;;;;;4993210;28;20533;-77
2021/10/24 12:44:31;;;;;;;3.72;2.72;;;14.00;99.90;;;;;;4994549;28;20236;-77
2021/10/24 12:47:00;;;;;;;7.22;3.22;;;13.90;99.90;;;;;;4994664;28;20195;-77
2021/10/24 12:49:29;;;;;;;6.75;2.85;;;13.80;99.90;;;;;;4992865;28;20224;-77
2021/10/24 12:52:14;;;;;;;3.60;2.80;;;13.90;99.90;;;;;;4994409;28;20621;-77
2021/10/24 12:54:44;;;;;;;5.55;2.85;;;13.90;99.90;;;;;;4994351;28;20653;-77
2021/10/24 12:57:10;;;;;;;3.65;2.85;;;13.90;99.90;;;;;;4994042;28;20244;-77
2021/10/24 12:59:36;;;;;;;4.78;2.78;;;13.90;99.90;;;;;;4993811;28;20205;-77
2021/10/24 13:02:04;;;;;;;4.57;2.55;;;14.00;99.90;;;;;;4994453;28;20196;-77
2021/10/24 13:04:30;;;;;;;5.78;3.00;;;14.00;99.90;;;;;;4994046;28;20177;-77